Buena Ventura Lakes, Florida
Current Conditions -  °F | °C
As of 9:50 PM on Saturday 22 Nov 2014 (Local Time) from KISM Reporting Station
Overcast Overcast  
Wind Chill: 70°   Ceiling: 7500
Heat Index: 70°   Visibility: 7mi
Dew Point: 70°   Wind: 9mph
Humidity: 100%   Direction: 100°E
Pressure: 30.13"   Gusts: NA
Location:  28.34°N, 81.35°W
Report Text: KISM 230250Z 10008KT 7SM BKN075 OVC100 21/21 A3013 RMK LAST
Loading
Personal Weather Stations






























Interactive Weather Map New forecast layout! Learn more

10-Day Weather Forecast

Advertisements
Track Severe Weather on mobile